Time;durP1;ratioP1;P1;durP2;ratioP2;P2;SDS_P1;SDS_P2;PMS_P1;PMS_P2;Temp;Humidity;BMP_temperature;BMP_pressure;BME280_temperature;BME280_humidity;BME280_pressure;Samples;Min_cycle;Max_cycle;Signal;HPM_P1;HPM_P2
2023/05/29 00:00:47;;;;;;;10.77;6.50;;;;;;;17.54;100.00;99732.09;5010004;28;20496;-19
2023/05/29 00:03:13;;;;;;;12.00;7.10;;;;;;;17.64;100.00;99727.47;5010553;28;20447;-19
2023/05/29 00:05:38;;;;;;;13.45;6.97;;;;;;;17.46;100.00;99733.44;5010055;28;20069;-19
2023/05/29 00:08:04;;;;;;;12.00;6.72;;;;;;;17.47;100.00;99724.31;5010361;28;20032;-19
2023/05/29 00:10:31;;;;;;;12.10;6.55;;;;;;;17.23;100.00;99732.94;5009856;28;20036;-19
2023/05/29 00:12:57;;;;;;;11.40;7.10;;;;;;;17.38;100.00;99734.00;5008700;28;20052;-19
2023/05/29 00:15:22;;;;;;;11.85;7.45;;;;;;;17.46;100.00;99725.38;5010008;28;20040;-19
2023/05/29 00:17:49;;;;;;;11.38;7.18;;;;;;;17.49;100.00;99727.53;5009999;28;20037;-19
2023/05/29 00:20:14;;;;;;;13.15;7.00;;;;;;;17.37;100.00;99727.81;5009927;28;20029;-19
2023/05/29 00:22:40;;;;;;;12.88;7.65;;;;;;;17.42;100.00;99730.47;5009939;28;20073;-19
2023/05/29 00:25:07;;;;;;;14.05;7.78;;;;;;;17.35;100.00;99727.28;5009897;28;20056;-20
2023/05/29 00:27:33;;;;;;;11.75;7.22;;;;;;;17.23;100.00;99721.38;5008605;28;20309;-19
2023/05/29 00:30:00;;;;;;;14.93;7.90;;;;;;;17.29;100.00;99717.59;5009870;28;20563;-18
2023/05/29 00:32:25;;;;;;;18.67;8.35;;;;;;;17.38;100.00;99728.63;5009803;28;20053;-19
2023/05/29 00:34:51;;;;;;;14.55;8.82;;;;;;;17.35;100.00;99734.56;5009781;28;20065;-19
2023/05/29 00:37:17;;;;;;;13.60;8.73;;;;;;;17.21;100.00;99713.53;5009873;28;20026;-18
2023/05/29 00:39:42;;;;;;;18.83;9.27;;;;;;;17.45;100.00;99731.84;5009671;28;20053;-18
2023/05/29 00:42:08;;;;;;;17.05;9.15;;;;;;;17.46;100.00;99736.94;5009530;28;20567;-20
2023/05/29 00:44:33;;;;;;;14.18;8.25;;;;;;;17.40;100.00;99739.94;5009437;28;20118;-19
2023/05/29 00:46:59;;;;;;;14.20;8.10;;;;;;;17.29;100.00;99730.25;5009632;28;20034;-19
2023/05/29 00:49:25;;;;;;;16.85;8.40;;;;;;;17.29;100.00;99730.25;5009347;28;20037;-19
2023/05/29 00:51:52;;;;;;;15.80;8.55;;;;;;;17.26;100.00;99732.41;5009375;28;20066;-19
2023/05/29 00:54:23;;;;;;;13.90;8.45;;;;;;;17.44;100.00;99724.81;5009148;28;20057;-23
2023/05/29 00:56:48;;;;;;;15.63;8.80;;;;;;;17.18;100.00;99730.28;5008990;28;20419;-21
2023/05/29 00:59:15;;;;;;;17.85;9.15;;;;;;;17.11;100.00;99724.34;5009281;28;20514;-18
2023/05/29 01:01:42;;;;;;;17.58;8.70;;;;;;;17.07;100.00;99718.66;5008414;28;20029;-18
2023/05/29 01:04:12;;;;;;;15.52;8.98;;;;;;;17.14;100.00;99728.38;5009104;28;20120;-19
2023/05/29 01:06:39;;;;;;;16.65;8.68;;;;;;;17.22;100.00;99742.13;5009272;28;20069;-20
2023/05/29 01:09:05;;;;;;;14.68;9.07;;;;;;;17.31;100.00;99733.50;5008902;28;20037;-18
2023/05/29 01:11:51;;;;;;;13.05;8.63;;;;;;;17.15;100.00;99730.78;5008948;28;20037;-18
2023/05/29 01:14:38;;;;;;;17.73;9.68;;;;;;;17.22;100.00;99728.66;5009161;28;20037;-23
2023/05/29 01:17:15;;;;;;;16.93;8.87;;;;;;;17.33;100.00;99726.75;5008826;28;20022;-18
2023/05/29 01:20:04;;;;;;;17.73;9.60;;;;;;;17.29;100.00;99724.88;5008680;28;20030;-20
2023/05/29 01:22:33;;;;;;;15.20;8.55;;;;;;;17.39;100.00;99724.84;5009017;28;20026;-19
2023/05/29 01:25:17;;;;;;;20.05;9.63;;;;;;;17.47;100.00;99717.00;5008556;28;20069;-21
2023/05/29 01:27:44;;;;;;;17.15;8.70;;;;;;;17.21;100.00;99718.13;5008977;28;20033;-19
2023/05/29 01:30:11;;;;;;;15.67;9.43;;;;;;;17.24;100.00;99713.00;5008600;28;20118;-18
2023/05/29 01:32:38;;;;;;;17.60;9.30;;;;;;;17.28;100.00;99718.66;5008777;28;20296;-18
2023/05/29 01:35:04;;;;;;;15.10;8.97;;;;;;;17.46;100.00;99719.97;5008259;28;20475;-19
2023/05/29 01:37:29;;;;;;;15.73;9.07;;;;;;;17.26;100.00;99718.13;5008352;28;20026;-18
2023/05/29 01:39:55;;;;;;;15.10;8.55;;;;;;;17.22;100.00;99719.72;5008385;28;20037;-18
2023/05/29 01:42:21;;;;;;;17.67;9.15;;;;;;;17.32;100.00;99716.22;5008283;28;20078;-19
2023/05/29 01:44:47;;;;;;;17.02;8.88;;;;;;;17.29;100.00;99719.47;5008150;28;20044;-18
2023/05/29 01:47:13;;;;;;;17.23;9.73;;;;;;;17.32;100.00;99718.91;5008483;28;21797;-18
2023/05/29 01:49:39;;;;;;;14.38;8.80;;;;;;;17.29;100.00;99714.88;5008041;28;20801;-19
2023/05/29 01:52:05;;;;;;;18.30;9.65;;;;;;;17.21;100.00;99715.44;5008309;28;20033;-20
2023/05/29 01:54:31;;;;;;;17.67;8.70;;;;;;;17.29;100.00;99719.47;5008039;28;20048;-19
2023/05/29 01:56:56;;;;;;;15.68;8.80;;;;;;;17.22;100.00;99717.88;5008089;28;20420;-22
2023/05/29 01:59:22;;;;;;;19.63;9.93;;;;;;;17.08;100.00;99714.13;5007990;28;20042;-19
2023/05/29 02:01:48;;;;;;;16.33;9.18;;;;;;;16.97;100.00;99709.78;5008317;28;20024;-19
2023/05/29 02:04:13;;;;;;;18.50;9.82;;;;;;;16.96;100.00;99716.25;5008192;28;20484;-18
2023/05/29 02:06:39;;;;;;;17.17;10.20;;;;;;;17.20;100.00;99717.34;5007847;28;20030;-19
2023/05/29 02:09:05;;;;;;;19.52;9.65;;;;;;;17.17;100.00;99723.25;5007902;28;20495;-18
2023/05/29 02:11:31;;;;;;;14.77;8.75;;;;;;;17.09;100.00;99704.94;5007953;28;20026;-20
2023/05/29 02:13:57;;;;;;;18.23;9.75;;;;;;;17.16;100.00;99720.81;5006858;28;20089;-18
2023/05/29 02:16:22;;;;;;;20.10;10.38;;;;;;;17.22;100.00;99720.56;5007606;28;20116;-19
2023/05/29 02:18:47;;;;;;;15.70;10.02;;;;;;;17.11;100.00;99721.63;5007741;28;20045;-15
2023/05/29 02:21:13;;;;;;;17.35;10.82;;;;;;;17.21;100.00;99718.94;5007940;28;20033;-18
2023/05/29 02:23:38;;;;;;;14.82;9.75;;;;;;;17.18;100.00;99719.50;5007673;28;20080;-16
2023/05/29 02:26:04;;;;;;;15.00;9.52;;;;;;;17.15;100.00;99720.03;5007442;28;20053;-17
2023/05/29 02:28:30;;;;;;;20.63;9.50;;;;;;;17.09;100.00;99712.22;5007734;28;20427;-17
2023/05/29 02:30:55;;;;;;;19.52;10.13;;;;;;;17.14;100.00;99723.81;5007697;28;20092;-17
2023/05/29 02:33:20;;;;;;;14.90;9.38;;;;;;;17.13;100.00;99722.19;5007602;28;20022;-23
2023/05/29 02:35:46;;;;;;;17.05;9.48;;;;;;;17.13;100.00;99716.78;5007462;28;20778;-17
2023/05/29 02:38:11;;;;;;;17.27;9.30;;;;;;;17.14;100.00;99718.41;5007485;28;20029;-16
2023/05/29 02:40:37;;;;;;;17.40;9.32;;;;;;;17.07;100.00;99712.47;5006898;28;20033;-16
2023/05/29 02:43:02;;;;;;;17.27;9.48;;;;;;;16.90;100.00;99691.22;5007136;28;20029;-17
2023/05/29 02:45:28;;;;;;;16.92;9.20;;;;;;;17.01;100.00;99708.19;5007089;28;20038;-19
2023/05/29 02:47:53;;;;;;;14.35;8.20;;;;;;;16.93;100.00;99697.94;5007026;28;20026;-16
2023/05/29 02:50:19;;;;;;;17.02;9.32;;;;;;;17.02;100.00;99709.78;5007503;28;20030;-17
2023/05/29 02:52:44;;;;;;;12.45;8.05;;;;;;;17.05;100.00;99710.06;4989539;28;20029;-17
2023/05/29 02:55:09;;;;;;;14.50;8.85;;;;;;;17.14;100.00;99723.81;5007301;28;20042;-16
2023/05/29 02:57:35;;;;;;;17.92;8.20;;;;;;;17.17;100.00;99734.03;4989295;28;20026;-20
2023/05/29 03:00:00;;;;;;;17.90;8.27;;;;;;;16.95;100.00;99720.81;5007180;28;20549;-17
2023/05/29 03:02:26;;;;;;;15.23;8.57;;;;;;;17.03;100.00;99731.06;5007103;28;20018;-17
2023/05/29 03:04:53;;;;;;;12.52;7.40;;;;;;;16.95;100.00;99730.81;5006683;28;20030;-23
2023/05/29 03:07:19;;;;;;;13.27;7.93;;;;;;;17.00;100.00;99734.31;5006790;28;20030;-17
2023/05/29 03:09:45;;;;;;;14.65;7.47;;;;;;;17.09;100.00;99737.25;5006954;28;20408;-17
2023/05/29 03:12:11;;;;;;;12.85;7.30;;;;;;;17.00;100.00;99739.69;5006906;28;20517;-16
2023/05/29 03:14:36;;;;;;;12.23;7.00;;;;;;;17.08;100.00;99735.66;5006797;28;20036;-16
2023/05/29 03:17:06;;;;;;;12.30;6.75;;;;;;;17.03;100.00;99746.44;5006413;28;20048;-16
2023/05/29 03:19:32;;;;;;;12.50;6.47;;;;;;;16.99;100.00;99751.53;5006750;28;20497;-17
2023/05/29 03:21:57;;;;;;;11.73;5.88;;;;;;;16.99;100.00;99761.50;5006772;28;20026;-16
2023/05/29 03:24:23;;;;;;;11.32;6.38;;;;;;;17.05;100.00;99752.34;5006596;28;20037;-18
2023/05/29 03:26:49;;;;;;;12.35;6.28;;;;;;;17.10;100.00;99744.28;5006359;28;20052;-17
2023/05/29 03:29:16;;;;;;;12.00;6.55;;;;;;;17.08;100.00;99754.53;5006629;28;20022;-16
2023/05/29 03:31:41;;;;;;;11.35;6.53;;;;;;;17.08;100.00;99751.81;5006610;28;20040;-17
2023/05/29 03:34:07;;;;;;;11.77;5.90;;;;;;;17.03;100.00;99760.69;5006617;28;20025;-17
2023/05/29 03:36:33;;;;;;;10.93;6.20;;;;;;;17.05;100.00;99763.13;5006479;28;20025;-17
2023/05/29 03:38:58;;;;;;;13.75;5.88;;;;;;;17.06;100.00;99776.34;5006299;28;20022;-17
2023/05/29 03:41:25;;;;;;;10.10;6.20;;;;;;;17.04;100.00;99756.09;5006208;28;20599;-17
2023/05/29 03:43:50;;;;;;;13.07;5.57;;;;;;;16.97;100.00;99777.13;5006690;28;20026;-16
2023/05/29 03:46:16;;;;;;;13.18;6.35;;;;;;;17.01;100.00;99779.00;5006257;28;20449;-17
2023/05/29 03:48:41;;;;;;;14.30;6.05;;;;;;;17.16;100.00;99780.94;5006468;28;20034;-17
2023/05/29 03:51:07;;;;;;;10.05;5.70;;;;;;;16.90;100.00;99792.72;5004653;28;20030;-17
2023/05/29 03:53:32;;;;;;;11.93;6.30;;;;;;;17.03;100.00;99792.22;5006654;28;20524;-17
2023/05/29 03:55:58;;;;;;;12.15;7.15;;;;;;;17.20;100.00;99791.94;5006236;28;20428;-20
2023/05/29 03:58:23;;;;;;;12.98;6.72;;;;;;;17.14;100.00;99771.47;5006188;28;20034;-18
2023/05/29 04:00:48;;;;;;;12.52;6.40;;;;;;;17.41;100.00;99788.19;5006543;28;20030;-17
2023/05/29 04:03:14;;;;;;;12.20;7.03;;;;;;;17.49;100.00;99784.16;5006264;28;20105;-18
2023/05/29 04:05:40;;;;;;;13.15;6.43;;;;;;;17.17;100.00;99765.56;5006371;28;20088;-17
2023/05/29 04:08:08;;;;;;;10.35;6.60;;;;;;;17.29;100.00;99781.47;5006049;28;20029;-16
2023/05/29 04:10:34;;;;;;;12.15;6.63;;;;;;;17.30;100.00;99780.38;5006050;28;20030;-16
2023/05/29 04:13:00;;;;;;;13.43;6.90;;;;;;;17.22;100.00;99785.25;5006157;28;20038;-16
2023/05/29 04:15:27;;;;;;;11.30;6.32;;;;;;;17.10;100.00;99782.00;5006185;28;20033;-17
2023/05/29 04:17:53;;;;;;;14.88;6.38;;;;;;;17.03;100.00;99786.84;5006258;28;20041;-21
2023/05/29 04:20:18;;;;;;;11.27;6.10;;;;;;;17.16;100.00;99794.41;5006334;28;20018;-18
2023/05/29 04:22:44;;;;;;;12.10;6.13;;;;;;;17.33;100.00;99787.94;5006240;28;20096;-16
2023/05/29 04:25:09;;;;;;;10.60;6.63;;;;;;;17.38;100.00;99799.50;5005888;28;20029;-16
2023/05/29 04:27:37;;;;;;;13.63;6.50;;;;;;;17.37;100.00;99797.09;5006049;28;20041;-17
2023/05/29 04:30:05;;;;;;;12.57;6.50;;;;;;;17.33;100.00;99786.03;5005899;28;20030;-17
2023/05/29 04:32:30;;;;;;;11.10;6.30;;;;;;;17.50;100.00;99799.22;5005638;28;20497;-16
2023/05/29 04:34:56;;;;;;;12.73;6.05;;;;;;;17.68;100.00;99792.47;5005852;28;20040;-17
2023/05/29 04:37:28;;;;;;;13.52;6.68;;;;;;;17.47;100.00;99780.91;5007120;28;20041;-18
2023/05/29 04:39:55;;;;;;;12.93;6.78;;;;;;;17.72;100.00;99798.13;5009428;28;20030;-20
2023/05/29 04:42:20;;;;;;;14.02;6.63;;;;;;;17.70;100.00;99805.69;5009416;28;20050;-17
2023/05/29 04:44:46;;;;;;;11.80;7.00;;;;;;;17.67;100.00;99807.84;5009345;28;20088;-20
2023/05/29 04:47:12;;;;;;;13.75;6.65;;;;;;;17.68;100.00;99809.44;5009094;28;20053;-18
2023/05/29 04:49:40;;;;;;;13.70;6.97;;;;;;;17.62;100.00;99804.34;5009649;28;20030;-17
2023/05/29 04:52:05;;;;;;;;;;;;;;;17.53;100.00;99796.00;5009783;28;20029;-19
2023/05/29 04:54:31;;;;;;;9.93;6.50;;;;;;;17.73;100.00;99805.13;5009351;28;19914;-18
2023/05/29 04:56:56;;;;;;;12.05;6.90;;;;;;;17.72;100.00;99811.63;5009214;28;20022;-18
2023/05/29 04:59:21;;;;;;;13.38;7.00;;;;;;;17.59;100.00;99800.31;5009309;28;20413;-18
2023/05/29 05:01:48;;;;;;;13.88;6.68;;;;;;;17.66;100.00;99817.00;5009396;28;20026;-19
2023/05/29 05:04:13;;;;;;;14.20;7.47;;;;;;;17.55;100.00;99826.19;5009070;28;20026;-18
2023/05/29 05:06:39;;;;;;;14.85;7.25;;;;;;;17.57;100.00;99821.34;5009229;28;20026;-19
2023/05/29 05:09:04;;;;;;;15.10;7.25;;;;;;;17.62;100.00;99825.91;5009099;28;20045;-18
2023/05/29 05:11:30;;;;;;;14.15;7.57;;;;;;;17.63;100.00;99822.94;5009110;28;20026;-18
2023/05/29 05:13:55;;;;;;;12.93;6.35;;;;;;;17.46;100.00;99830.50;5008876;28;20022;-18
2023/05/29 05:16:21;;;;;;;15.02;7.75;;;;;;;17.58;100.00;99820.25;5009101;28;20421;-18
2023/05/29 05:18:46;;;;;;;12.25;6.93;;;;;;;17.73;100.00;99837.50;5008720;28;20038;-17
2023/05/29 05:21:11;;;;;;;13.80;7.47;;;;;;;17.59;100.00;99838.06;5008951;28;20121;-18
2023/05/29 05:23:37;;;;;;;12.73;7.07;;;;;;;17.48;100.00;99831.84;5008640;28;21080;-18
2023/05/29 05:26:03;;;;;;;14.02;7.30;;;;;;;17.52;100.00;99834.81;5008436;28;20087;-18
2023/05/29 05:28:28;;;;;;;12.32;7.28;;;;;;;17.35;100.00;99820.81;5008495;28;20037;-18
2023/05/29 05:30:53;;;;;;;12.20;6.90;;;;;;;17.45;100.00;99826.19;5008156;28;20025;-22
2023/05/29 05:33:19;;;;;;;13.68;7.60;;;;;;;17.53;100.00;99832.91;5008625;28;20505;-17
2023/05/29 05:35:45;;;;;;;15.02;7.25;;;;;;;17.55;100.00;99826.19;5008360;28;20036;-19
2023/05/29 05:38:11;;;;;;;14.68;7.47;;;;;;;17.64;100.00;99827.25;5008202;28;20026;-18
2023/05/29 05:40:36;;;;;;;10.82;7.20;;;;;;;17.77;100.00;99838.56;5008045;28;20022;-17
2023/05/29 05:43:01;;;;;;;12.27;7.72;;;;;;;17.75;100.00;99835.31;5008346;28;20026;-18
2023/05/29 05:45:27;;;;;;;12.27;7.07;;;;;;;17.77;100.00;99822.38;4990355;28;20053;-18
2023/05/29 05:47:52;;;;;;;12.23;6.88;;;;;;;17.63;100.00;99812.16;5008197;28;20510;-19
2023/05/29 05:50:18;;;;;;;12.07;7.40;;;;;;;17.74;100.00;99833.72;5008162;28;20026;-17
2023/05/29 05:52:43;;;;;;;14.07;8.55;;;;;;;17.66;100.00;99825.09;5007871;28;20121;-18
2023/05/29 05:55:09;;;;;;;12.73;7.85;;;;;;;17.52;100.00;99832.13;5008119;28;20026;-18
2023/05/29 05:57:35;;;;;;;13.65;7.28;;;;;;;17.56;100.00;99838.59;5007943;28;20034;-18
2023/05/29 06:00:11;;;;;;;14.00;7.30;;;;;;;17.72;100.00;99835.88;5007890;28;20029;-17
2023/05/29 06:02:37;;;;;;;12.10;7.93;;;;;;;17.73;100.00;99840.19;5007948;28;20432;-17
2023/05/29 06:05:03;;;;;;;10.70;6.97;;;;;;;17.67;100.00;99829.41;5007777;28;20037;-19
2023/05/29 06:07:29;;;;;;;14.65;8.10;;;;;;;17.87;100.00;99838.56;5007634;28;20033;-18
2023/05/29 06:09:55;;;;;;;12.35;7.32;;;;;;;17.91;100.00;99846.94;5007898;28;20034;-17
2023/05/29 06:12:20;;;;;;;13.50;7.07;;;;;;;17.96;100.00;99839.66;5007969;28;20080;-18
2023/05/29 06:14:46;;;;;;;20.55;8.23;;;;;;;18.05;100.00;99845.28;5007693;28;20034;-18
2023/05/29 06:17:11;;;;;;;11.02;7.47;;;;;;;17.95;100.00;99838.03;5007628;28;20108;-16
2023/05/29 06:19:37;;;;;;;11.10;7.57;;;;;;;18.04;100.00;99846.34;5007464;28;20413;-20
2023/05/29 06:22:02;;;;;;;14.13;7.82;;;;;;;18.09;100.00;99850.94;5007757;28;20037;-19
2023/05/29 06:24:28;;;;;;;12.70;7.50;;;;;;;18.16;100.00;99849.56;5007551;28;20029;-19
2023/05/29 06:26:53;;;;;;;10.80;7.35;;;;;;;18.21;100.00;99854.16;5007779;28;20026;-20
2023/05/29 06:29:18;;;;;;;13.40;7.15;;;;;;;18.29;100.00;99834.69;5007514;28;20034;-18
2023/05/29 06:31:44;;;;;;;12.02;7.35;;;;;;;18.43;100.00;99851.13;5007145;28;20033;-18
2023/05/29 06:34:09;;;;;;;10.68;7.30;;;;;;;18.41;100.00;99845.97;5007482;28;20034;-17
2023/05/29 06:36:35;;;;;;;15.23;7.70;;;;;;;18.28;100.00;99819.56;5007174;28;20037;-18
2023/05/29 06:39:00;;;;;;;13.30;7.93;;;;;;;18.56;100.00;99836.19;5007172;28;20081;-18
2023/05/29 06:41:25;;;;;;;12.73;7.40;;;;;;;18.59;100.00;99832.94;5007172;28;20029;-19
2023/05/29 06:43:51;;;;;;;14.68;7.60;;;;;;;18.61;100.00;99833.47;5006956;28;20420;-17
2023/05/29 06:46:17;;;;;;;13.02;7.63;;;;;;;18.55;100.00;99838.09;5006395;28;20062;-18
2023/05/29 06:48:43;;;;;;;14.32;7.65;;;;;;;18.62;100.00;99838.59;5006719;28;20060;-18
2023/05/29 06:51:11;;;;;;;13.13;7.95;;;;;;;18.56;100.00;99834.31;5007060;28;20022;-17
2023/05/29 06:53:36;;;;;;;13.07;8.02;;;;;;;18.80;100.00;99845.28;5007293;28;20105;-18
2023/05/29 06:56:02;;;;;;;13.07;7.45;;;;;;;18.68;100.00;99842.88;5006712;28;20187;-18
2023/05/29 06:58:27;;;;;;;12.13;7.35;;;;;;;18.48;100.00;99846.47;5006531;28;20546;-18
2023/05/29 07:00:53;;;;;;;15.15;8.32;;;;;;;18.59;100.00;99844.56;5006447;28;20485;-24
2023/05/29 07:03:18;;;;;;;13.88;7.65;;;;;;;18.56;100.00;99839.69;5007241;28;20081;-18
2023/05/29 07:05:43;;;;;;;11.85;7.45;;;;;;;18.58;100.00;99852.94;5006824;28;20427;-18
2023/05/29 07:08:09;;;;;;;12.55;7.70;;;;;;;18.52;100.00;99854.03;5007047;28;20029;-17
2023/05/29 07:10:34;;;;;;;11.45;7.40;;;;;;;18.51;100.00;99852.41;5007007;28;20537;-19
2023/05/29 07:13:00;;;;;;;14.00;9.20;;;;;;;18.45;100.00;99855.16;5006979;28;20034;-18
2023/05/29 07:15:25;;;;;;;15.07;9.80;;;;;;;18.64;100.00;99855.31;5006961;28;20021;-18
2023/05/29 07:17:51;;;;;;;12.70;7.75;;;;;;;18.77;100.00;99855.81;5007030;28;20540;-19
2023/05/29 07:20:18;;;;;;;11.52;7.45;;;;;;;18.94;100.00;99861.69;5006466;28;20014;-18
2023/05/29 07:22:44;;;;;;;12.48;7.45;;;;;;;18.93;100.00;99860.06;5006794;28;20409;-18
2023/05/29 07:25:10;;;;;;;15.48;7.80;;;;;;;18.79;100.00;99857.16;5006627;28;20519;-19
2023/05/29 07:27:35;;;;;;;11.50;8.10;;;;;;;18.93;100.00;99860.06;5006794;28;20042;-18
2023/05/29 07:30:05;;;;;;;11.80;7.43;;;;;;;18.94;100.00;99850.06;5006440;28;20026;-17
2023/05/29 07:32:31;;;;;;;12.27;7.38;;;;;;;19.15;100.00;99865.06;5006898;28;20087;-18
2023/05/29 07:34:56;;;;;;;12.40;7.30;;;;;;;19.21;100.00;99850.44;5006518;28;20096;-18
2023/05/29 07:37:22;;;;;;;11.07;7.60;;;;;;;19.41;100.00;99854.06;5006936;28;20026;-19
2023/05/29 07:39:47;;;;;;;11.30;7.32;;;;;;;19.50;100.00;99851.56;5006422;28;20030;-18
2023/05/29 07:42:12;;;;;;;10.95;7.43;;;;;;;19.16;100.00;99845.03;5006476;28;20174;-18
2023/05/29 07:44:38;;;;;;;11.30;7.15;;;;;;;19.31;100.00;99864.94;5006632;28;20045;-18
2023/05/29 07:47:03;;;;;;;12.10;8.10;;;;;;;19.28;100.00;99850.09;5006507;28;20026;-18
2023/05/29 07:49:30;;;;;;;14.05;8.52;;;;;;;19.42;100.00;99867.31;5006277;28;20815;-18
2023/05/29 07:51:55;;;;;;;12.55;7.55;;;;;;;19.54;100.00;99869.66;5006618;28;20049;-17
2023/05/29 07:54:22;;;;;;;11.90;7.82;;;;;;;19.62;100.00;99879.06;5006620;28;20488;-18
2023/05/29 07:56:47;;;;;;;13.35;8.15;;;;;;;19.73;100.00;99874.38;5006774;28;20440;-18
2023/05/29 07:59:13;;;;;;;14.85;8.45;;;;;;;19.83;100.00;99882.41;5006357;28;21060;-19
2023/05/29 08:01:39;;;;;;;13.48;7.80;;;;;;;20.07;100.00;99875.13;5006317;28;20424;-17
2023/05/29 08:04:04;;;;;;;12.05;7.78;;;;;;;20.20;100.00;99883.66;5006255;28;20032;-17
2023/05/29 08:06:32;;;;;;;12.77;7.38;;;;;;;20.44;100.00;99881.75;5006453;28;20026;-19
2023/05/29 08:08:57;;;;;;;9.38;6.40;;;;;;;20.51;100.00;99875.19;5006356;28;20104;-17
2023/05/29 08:11:23;;;;;;;10.35;6.68;;;;;;;20.56;100.00;99864.31;5006643;28;20121;-18
2023/05/29 08:13:48;;;;;;;11.93;6.40;;;;;;;20.51;100.00;99870.56;5009910;28;20050;-19
2023/05/29 08:16:15;;;;;;;10.75;7.10;;;;;;;20.46;100.00;99863.31;5010358;28;20067;-17
2023/05/29 08:18:41;;;;;;;11.00;6.27;;;;;;;20.63;100.00;99862.88;5009971;28;20084;-19
2023/05/29 08:21:06;;;;;;;11.10;5.80;;;;;;;20.76;100.00;99860.53;5010238;28;20464;-18
2023/05/29 08:23:32;;;;;;;10.43;5.60;;;;;;;20.80;100.00;99861.56;5010043;28;20060;-18
2023/05/29 08:25:57;;;;;;;10.25;6.13;;;;;;;20.97;100.00;99871.91;5010004;28;20025;-18
2023/05/29 08:28:23;;;;;;;8.85;6.05;;;;;;;20.96;100.00;99870.28;5010074;28;20030;-18
2023/05/29 08:30:48;;;;;;;10.50;6.10;;;;;;;21.16;100.00;99871.91;5009864;28;20025;-18
2023/05/29 08:33:14;;;;;;;9.48;5.93;;;;;;;20.95;100.00;99866.00;5010060;28;20463;-18
2023/05/29 08:35:39;;;;;;;11.35;5.97;;;;;;;21.18;100.00;99862.38;5009800;28;20131;-18
2023/05/29 08:38:05;;;;;;;8.93;5.70;;;;;;;21.32;100.00;99877.91;5009861;28;20060;-18
2023/05/29 08:40:30;;;;;;;8.23;5.75;;;;;;;21.34;100.00;99870.28;5009488;28;22062;-18
2023/05/29 08:43:05;;;;;;;8.65;5.80;;;;;;;21.53;100.00;99873.78;5009506;28;20066;-22
2023/05/29 08:45:33;;;;;;;8.43;5.70;;;;;;;21.38;100.00;99846.91;5009468;28;20030;-17
2023/05/29 08:48:01;;;;;;;8.80;5.32;;;;;;;21.57;100.00;99863.94;5009247;28;20036;-17
2023/05/29 08:50:26;;;;;;;8.77;5.47;;;;;;;21.55;100.00;99863.44;5009443;28;20030;-22
2023/05/29 08:52:52;;;;;;;9.00;5.80;;;;;;;21.63;100.00;99851.13;5009651;28;20033;-19
2023/05/29 08:55:18;;;;;;;7.95;5.65;;;;;;;21.94;96.99;99856.78;5009575;28;20509;-17
2023/05/29 08:57:43;;;;;;;9.30;5.22;;;;;;;21.95;93.90;99860.34;5009126;28;20022;-18
2023/05/29 09:00:12;;;;;;;8.43;5.00;;;;;;;21.91;96.62;99851.19;5009195;28;20065;-18
2023/05/29 09:02:41;;;;;;;8.60;4.78;;;;;;;22.11;97.86;99844.53;5009297;28;20501;-18
2023/05/29 09:05:07;;;;;;;8.88;4.82;;;;;;;22.40;95.84;99849.72;5009276;28;20026;-18
2023/05/29 09:07:33;;;;;;;8.02;4.85;;;;;;;22.72;94.90;99840.63;5008778;28;20026;-18
2023/05/29 09:10:00;;;;;;;7.50;4.40;;;;;;;23.53;87.16;99837.09;5009143;28;20033;-19
2023/05/29 09:12:26;;;;;;;7.55;4.55;;;;;;;24.05;87.84;99820.25;5009424;28;20033;-20
2023/05/29 09:14:51;;;;;;;7.90;4.00;;;;;;;23.99;82.34;99835.13;5009091;28;20030;-19
2023/05/29 09:17:17;;;;;;;8.10;4.10;;;;;;;23.50;80.70;99834.19;5009056;28;20030;-18
2023/05/29 09:19:42;;;;;;;6.45;4.28;;;;;;;23.60;82.25;99828.47;5008887;28;20402;-19
2023/05/29 09:22:17;;;;;;;8.18;3.90;;;;;;;23.58;81.74;99834.25;5009096;28;20030;-18
2023/05/29 09:24:47;;;;;;;8.00;4.45;;;;;;;23.56;85.49;99814.72;5008596;28;20104;-21
2023/05/29 09:27:12;;;;;;;7.28;4.25;;;;;;;23.92;82.26;99811.06;5008798;28;20532;-19
2023/05/29 09:29:40;;;;;;;10.38;5.28;;;;;;;24.15;79.17;99809.06;5008809;28;20018;-18
2023/05/29 09:32:19;;;;;;;9.52;4.97;;;;;;;24.21;82.48;99809.72;5008915;28;20033;-18
2023/05/29 09:34:45;;;;;;;9.65;5.22;;;;;;;24.10;83.03;99814.66;5008627;28;20026;-18
2023/05/29 09:37:12;;;;;;;9.85;5.00;;;;;;;24.00;83.57;99795.88;5008900;28;20080;-18
2023/05/29 09:39:47;;;;;;;8.10;4.97;;;;;;;24.15;77.29;99819.16;5008750;28;20026;-20
2023/05/29 09:42:13;;;;;;;9.02;5.28;;;;;;;24.34;82.15;99816.97;5008390;28;20077;-18
2023/05/29 09:44:40;;;;;;;8.63;4.40;;;;;;;24.06;78.02;99803.56;5008283;28;20095;-18
2023/05/29 09:47:06;;;;;;;9.82;4.55;;;;;;;24.34;76.97;99811.53;5008474;28;20109;-18
2023/05/29 09:49:32;;;;;;;9.80;4.30;;;;;;;24.41;71.62;99813.78;5008661;28;20113;-20
2023/05/29 09:51:59;;;;;;;8.40;4.47;;;;;;;24.56;72.46;99812.53;5008336;28;20108;-18
2023/05/29 09:54:28;;;;;;;6.03;3.92;;;;;;;24.52;77.15;99801.50;5008088;28;20117;-19
2023/05/29 09:56:55;;;;;;;10.38;4.07;;;;;;;24.57;74.54;99792.34;5008233;28;20123;-19
2023/05/29 09:59:24;;;;;;;8.20;4.65;;;;;;;25.08;73.19;99793.47;5008124;28;20037;-18
2023/05/29 10:02:01;;;;;;;6.72;3.60;;;;;;;25.31;70.22;99806.94;5007923;28;20061;-17
2023/05/29 10:04:27;;;;;;;8.40;3.95;;;;;;;24.99;74.29;99800.88;5008116;28;20488;-19
2023/05/29 10:06:56;;;;;;;8.40;4.28;;;;;;;25.13;70.72;99798.78;5007815;28;20029;-18
2023/05/29 10:09:25;;;;;;;6.20;3.58;;;;;;;25.35;71.27;99794.25;5007728;28;20112;-18
2023/05/29 10:11:53;;;;;;;7.90;3.97;;;;;;;25.77;71.04;99802.66;5007680;28;20037;-18
2023/05/29 10:14:22;;;;;;;6.47;3.92;;;;;;;26.32;67.35;99796.31;5007926;28;20026;-19
2023/05/29 10:16:50;;;;;;;6.10;3.83;;;;;;;26.08;68.23;99779.72;5007732;28;20099;-22
2023/05/29 10:19:19;;;;;;;;;;;;;;;26.26;67.83;99786.69;5008216;28;20037;-18
2023/05/29 10:21:47;;;;;;;5.20;3.10;;;;;;;26.07;65.70;99784.38;5007621;28;19917;-19
2023/05/29 10:24:13;;;;;;;6.45;2.85;;;;;;;25.89;59.64;99783.66;5007679;28;20029;-18
2023/05/29 10:26:40;;;;;;;6.75;2.95;;;;;;;25.88;61.66;99760.19;5007917;28;20080;-19
2023/05/29 10:29:05;;;;;;;5.97;3.08;;;;;;;25.91;65.25;99775.94;5008038;28;20030;-18
2023/05/29 10:31:48;;;;;;;5.35;3.17;;;;;;;26.19;63.16;99786.41;5007737;28;20812;-18
2023/05/29 10:34:45;;;;;;;7.55;2.78;;;;;;;26.69;64.11;99782.88;5007419;28;20026;-18
2023/05/29 10:37:36;;;;;;;7.05;2.50;;;;;;;27.38;54.79;99781.47;5007759;28;20068;-18
2023/05/29 10:40:06;;;;;;;8.07;3.13;;;;;;;27.39;58.43;99787.75;5007977;28;20041;-19
2023/05/29 10:42:49;;;;;;;4.75;2.70;;;;;;;27.08;52.74;99783.50;5007102;28;20631;-20
2023/05/29 10:45:32;;;;;;;4.93;2.60;;;;;;;27.30;54.92;99800.69;5007257;28;20468;-18
2023/05/29 10:48:28;;;;;;;5.10;2.83;;;;;;;26.97;58.22;99801.47;5007620;28;20018;-20
2023/05/29 10:50:54;;;;;;;5.68;2.80;;;;;;;26.50;54.01;99796.19;5003443;28;20037;-18
2023/05/29 10:53:25;;;;;;;5.55;2.45;;;;;;;26.29;58.37;99791.47;5007308;28;20962;-19
2023/05/29 10:55:52;;;;;;;6.25;3.10;;;;;;;26.40;57.85;99791.91;5007164;28;20128;-18
2023/05/29 10:58:25;;;;;;;4.88;2.63;;;;;;;26.71;57.38;99780.63;5007325;28;20397;-19
2023/05/29 11:00:57;;;;;;;3.90;2.45;;;;;;;26.76;56.80;99785.88;5007064;28;20037;-18
2023/05/29 11:03:30;;;;;;;5.93;2.70;;;;;;;26.23;55.93;99784.59;5007333;28;20770;-18
2023/05/29 11:05:56;;;;;;;4.93;2.90;;;;;;;26.15;59.15;99778.06;5007003;28;20068;-19
2023/05/29 11:08:32;;;;;;;5.53;3.10;;;;;;;25.94;56.48;99758.88;5007239;28;20065;-18
2023/05/29 11:10:59;;;;;;;6.68;3.10;;;;;;;26.44;60.05;99760.06;5007365;28;20030;-19
2023/05/29 11:13:35;;;;;;;7.82;3.20;;;;;;;27.09;55.68;99770.63;5007079;28;20022;-21
2023/05/29 11:16:28;;;;;;;4.50;2.55;;;;;;;26.88;55.60;99748.78;5007150;28;20034;-24
2023/05/29 11:18:55;;;;;;;3.67;2.55;;;;;;;27.29;53.63;99767.06;5007140;28;20501;-19
2023/05/29 11:21:49;;;;;;;5.30;3.08;;;;;;;27.47;58.13;99755.94;5007000;28;20048;-19